Time;durP1;ratioP1;P1;durP2;ratioP2;P2;SDS_P1;SDS_P2;PMS_P1;PMS_P2;Temp;Humidity;BMP_temperature;BMP_pressure;BME280_temperature;BME280_humidity;BME280_pressure;Samples;Min_cycle;Max_cycle;Signal;HPM_P1;HPM_P2
2024/03/28 00:02:14;;;;;;;12.20;4.53;;;;;;;;;;758116;184;802928;-68
2024/03/28 00:04:40;;;;;;;25.33;4.37;;;;;;;;;;761636;184;875996;-66
2024/03/28 00:07:06;;;;;;;22.70;5.13;;;;;;;;;;754647;184;813940;-65
2024/03/28 00:09:32;;;;;;;16.30;5.10;;;;;;;;;;754058;184;917960;-64
2024/03/28 00:11:58;;;;;;;17.80;3.90;;;;;;;;;;756851;183;1020593;-65
2024/03/28 00:14:23;;;;;;;12.33;3.93;;;;;;;;;;752429;184;885945;-66
2024/03/28 00:16:49;;;;;;;23.70;5.33;;;;;;;;;;756840;184;922974;-65
2024/03/28 00:19:15;;;;;;;15.60;4.47;;;;;;;;;;755344;184;789802;-65
2024/03/28 00:21:41;;;;;;;27.60;9.23;;;;;;;;;;762475;183;719198;-64
2024/03/28 00:24:07;;;;;;;11.83;4.33;;;;;;;;;;763741;180;785351;-64
2024/03/28 00:26:33;;;;;;;21.07;5.60;;;;;;;;;;758635;183;872069;-64
2024/03/28 00:28:59;;;;;;;14.50;5.57;;;;;;;;;;761942;183;818713;-64
2024/03/28 00:31:25;;;;;;;17.47;5.43;;;;;;;;;;752535;183;909363;-64
2024/03/28 00:33:50;;;;;;;19.95;5.40;;;;;;;;;;754649;183;915551;-65
2024/03/28 00:36:17;;;;;;;20.50;5.00;;;;;;;;;;757941;184;848834;-65
2024/03/28 00:38:42;;;;;;;11.10;4.67;;;;;;;;;;758758;184;815596;-65
2024/03/28 00:41:08;;;;;;;16.70;5.18;;;;;;;;;;760924;183;918024;-65
2024/03/28 00:43:34;;;;;;;16.90;6.60;;;;;;;;;;759486;183;839830;-64
2024/03/28 00:46:00;;;;;;;22.90;6.10;;;;;;;;;;756118;183;935361;-64
2024/03/28 00:48:25;;;;;;;17.40;5.37;;;;;;;;;;752091;184;806945;-65
2024/03/28 00:50:54;;;;;;;19.27;6.40;;;;;;;;;;765577;183;816255;-66
2024/03/28 00:53:20;;;;;;;38.43;7.23;;;;;;;;;;768896;183;919117;-65
2024/03/28 00:55:46;;;;;;;24.85;6.30;;;;;;;;;;757732;183;625478;-66
2024/03/28 00:58:12;;;;;;;29.37;7.72;;;;;;;;;;756343;184;1022499;-65
2024/03/28 01:00:38;;;;;;;18.33;5.90;;;;;;;;;;763749;183;642814;-65
2024/03/28 01:03:03;;;;;;;25.87;9.17;;;;;;;;;;754750;184;915833;-65
2024/03/28 01:05:29;;;;;;;19.17;7.60;;;;;;;;;;755257;184;944385;-64
2024/03/28 01:07:55;;;;;;;33.53;8.93;;;;;;;;;;760683;184;806303;-65
2024/03/28 01:10:21;;;;;;;25.17;8.00;;;;;;;;;;752863;184;898281;-66
2024/03/28 01:12:47;;;;;;;36.20;9.77;;;;;;;;;;753602;184;819132;-65
2024/03/28 01:15:13;;;;;;;27.47;9.13;;;;;;;;;;761328;183;918263;-66
2024/03/28 01:17:38;;;;;;;19.40;7.20;;;;;;;;;;757243;183;815549;-67
2024/03/28 01:20:07;;;;;;;25.60;10.20;;;;;;;;;;755459;183;917207;-67
2024/03/28 01:22:31;;;;;;;31.80;8.90;;;;;;;;;;752812;184;917458;-67
2024/03/28 01:24:57;;;;;;;41.60;10.07;;;;;;;;;;757579;184;917105;-66
2024/03/28 01:27:22;;;;;;;29.17;8.73;;;;;;;;;;758078;183;922391;-67
2024/03/28 01:29:48;;;;;;;33.27;10.20;;;;;;;;;;756226;184;920116;-68
2024/03/28 01:32:14;;;;;;;22.90;10.40;;;;;;;;;;761298;183;805019;-67
2024/03/28 01:34:40;;;;;;;32.73;9.40;;;;;;;;;;752841;184;814226;-67
2024/03/28 01:37:06;;;;;;;21.53;8.13;;;;;;;;;;760632;181;819162;-68
2024/03/28 01:39:32;;;;;;;36.10;13.17;;;;;;;;;;759519;182;842746;-67
2024/03/28 01:41:58;;;;;;;33.00;10.50;;;;;;;;;;757282;183;924288;-68
2024/03/28 01:44:24;;;;;;;34.10;9.65;;;;;;;;;;758316;184;711973;-67
2024/03/28 01:46:51;;;;;;;19.90;9.20;;;;;;;;;;760681;184;905829;-68
2024/03/28 01:49:17;;;;;;;27.10;10.57;;;;;;;;;;756557;184;817258;-68
2024/03/28 01:51:43;;;;;;;39.27;10.97;;;;;;;;;;754056;183;816708;-67
2024/03/28 01:54:09;;;;;;;26.30;10.93;;;;;;;;;;755213;184;915381;-68
2024/03/28 01:56:34;;;;;;;26.63;9.77;;;;;;;;;;760787;183;794741;-69
2024/03/28 01:59:00;;;;;;;19.33;9.73;;;;;;;;;;761243;183;803800;-66
2024/03/28 02:01:26;;;;;;;31.23;8.97;;;;;;;;;;758111;184;807459;-68
2024/03/28 02:03:52;;;;;;;33.07;10.90;;;;;;;;;;759266;181;918859;-67
2024/03/28 02:06:18;;;;;;;30.33;9.70;;;;;;;;;;753276;183;844429;-68
2024/03/28 02:08:44;;;;;;;27.23;10.00;;;;;;;;;;757019;180;835170;-67
2024/03/28 02:11:09;;;;;;;34.07;10.73;;;;;;;;;;756425;183;915337;-64
2024/03/28 02:13:35;;;;;;;44.00;13.10;;;;;;;;;;754394;184;917185;-64
2024/03/28 02:16:01;;;;;;;43.53;10.80;;;;;;;;;;754494;184;927716;-65
2024/03/28 02:18:27;;;;;;;32.40;10.73;;;;;;;;;;760498;183;715238;-65
2024/03/28 02:20:53;;;;;;;27.13;11.80;;;;;;;;;;754870;183;918942;-65
2024/03/28 02:23:19;;;;;;;34.35;11.45;;;;;;;;;;754986;184;1007225;-66
2024/03/28 02:25:47;;;;;;;45.57;10.20;;;;;;;;;;768801;181;643787;-66
2024/03/28 02:28:11;;;;;;;35.10;11.27;;;;;;;;;;766259;179;907796;-64
2024/03/28 02:30:37;;;;;;;43.53;12.73;;;;;;;;;;774990;179;819086;-64
2024/03/28 02:33:03;;;;;;;32.83;9.75;;;;;;;;;;768610;180;986048;-68
2024/03/28 02:35:29;;;;;;;35.83;12.57;;;;;;;;;;771745;179;634539;-66
2024/03/28 02:37:55;;;;;;;20.80;9.60;;;;;;;;;;768059;179;916236;-65
2024/03/28 02:40:20;;;;;;;35.33;10.83;;;;;;;;;;759341;181;815559;-65
2024/03/28 02:42:46;;;;;;;29.63;11.87;;;;;;;;;;768212;180;712607;-66
2024/03/28 02:45:12;;;;;;;30.23;11.57;;;;;;;;;;769196;179;920025;-65
2024/03/28 02:47:38;;;;;;;25.33;10.27;;;;;;;;;;762692;179;915651;-68
2024/03/28 02:50:04;;;;;;;38.03;9.63;;;;;;;;;;772713;179;715025;-66
2024/03/28 02:52:30;;;;;;;33.43;11.17;;;;;;;;;;769756;179;917469;-65
2024/03/28 02:54:56;;;;;;;33.15;9.75;;;;;;;;;;771198;179;922461;-65
2024/03/28 02:57:22;;;;;;;38.27;11.33;;;;;;;;;;771610;179;816172;-67
2024/03/28 02:59:48;;;;;;;33.90;9.57;;;;;;;;;;768848;181;617587;-65
2024/03/28 03:02:14;;;;;;;33.53;10.77;;;;;;;;;;770811;179;920333;-65
2024/03/28 03:04:39;;;;;;;18.07;9.83;;;;;;;;;;765114;180;803720;-66
2024/03/28 03:07:05;;;;;;;28.23;12.70;;;;;;;;;;770330;180;917698;-64
2024/03/28 03:09:31;;;;;;;17.30;8.13;;;;;;;;;;756460;181;921175;-65
2024/03/28 03:11:57;;;;;;;23.57;9.23;;;;;;;;;;765818;179;827854;-65
2024/03/28 03:14:23;;;;;;;17.87;9.45;;;;;;;;;;773173;181;820123;-65
2024/03/28 03:16:49;;;;;;;22.50;9.27;;;;;;;;;;768892;179;919718;-65
2024/03/28 03:19:16;;;;;;;28.33;9.73;;;;;;;;;;767454;179;912115;-66
2024/03/28 03:21:40;;;;;;;27.83;11.50;;;;;;;;;;773687;179;915319;-64
2024/03/28 03:24:10;;;;;;;33.10;11.40;;;;;;;;;;767251;179;916202;-65
2024/03/28 03:26:34;;;;;;;33.00;10.00;;;;;;;;;;763767;179;924235;-64
2024/03/28 03:36:34;;;;;;;30.23;10.77;;;;;;;;;;768184;180;818252;-68
2024/03/28 03:39:00;;;;;;;31.00;10.00;;;;;;;;;;765000;179;847173;-68
2024/03/28 03:41:25;;;;;;;21.33;8.17;;;;;;;;;;768221;181;920732;-67
2024/03/28 03:43:51;;;;;;;34.40;10.83;;;;;;;;;;763416;181;920901;-66
2024/03/28 03:46:17;;;;;;;22.90;7.57;;;;;;;;;;769136;179;816408;-68
2024/03/28 03:48:43;;;;;;;21.23;8.70;;;;;;;;;;770797;180;913864;-68
2024/03/28 03:51:09;;;;;;;24.63;9.10;;;;;;;;;;769008;179;812930;-67
2024/03/28 03:53:35;;;;;;;27.27;8.88;;;;;;;;;;768300;179;714562;-67
2024/03/28 03:56:01;;;;;;;32.90;9.80;;;;;;;;;;772077;179;916775;-68
2024/03/28 03:58:27;;;;;;;23.10;9.40;;;;;;;;;;766257;180;920294;-65
2024/03/28 04:00:52;;;;;;;22.40;8.30;;;;;;;;;;767948;179;923275;-67
2024/03/28 04:03:18;;;;;;;25.70;10.30;;;;;;;;;;767141;179;759351;-68
2024/03/28 04:05:44;;;;;;;18.97;8.57;;;;;;;;;;768607;181;922222;-67
2024/03/28 04:08:10;;;;;;;19.40;9.60;;;;;;;;;;771436;179;815203;-67
2024/03/28 04:10:36;;;;;;;21.57;9.27;;;;;;;;;;765976;179;819256;-68
2024/03/28 04:13:02;;;;;;;25.70;10.60;;;;;;;;;;774330;179;860645;-68
2024/03/28 04:15:27;;;;;;;25.07;9.53;;;;;;;;;;768090;181;816789;-68
2024/03/28 04:17:53;;;;;;;25.97;7.70;;;;;;;;;;764414;181;808307;-67
2024/03/28 04:20:19;;;;;;;19.27;7.80;;;;;;;;;;773614;179;700960;-68
2024/03/28 04:22:46;;;;;;;23.77;7.72;;;;;;;;;;766908;180;892810;-67
2024/03/28 04:25:11;;;;;;;24.17;7.20;;;;;;;;;;767397;179;914957;-68
2024/03/28 04:27:37;;;;;;;22.60;8.63;;;;;;;;;;774608;179;714237;-68
2024/03/28 04:30:03;;;;;;;19.00;7.40;;;;;;;;;;767971;180;918525;-64
2024/03/28 04:32:29;;;;;;;18.67;6.63;;;;;;;;;;762562;180;938925;-65
2024/03/28 04:34:54;;;;;;;22.27;6.77;;;;;;;;;;770763;180;777924;-65
2024/03/28 04:37:20;;;;;;;14.03;6.73;;;;;;;;;;762564;180;831586;-64
2024/03/28 04:39:46;;;;;;;20.10;7.80;;;;;;;;;;761935;181;913414;-65
2024/03/28 04:42:12;;;;;;;16.27;6.07;;;;;;;;;;763804;179;909758;-65
2024/03/28 04:44:38;;;;;;;14.30;6.13;;;;;;;;;;770474;181;919040;-64
2024/03/28 04:47:04;;;;;;;19.73;6.57;;;;;;;;;;771303;179;625548;-64
2024/03/28 04:49:30;;;;;;;28.65;6.03;;;;;;;;;;760392;181;914278;-65
2024/03/28 04:51:55;;;;;;;12.37;5.20;;;;;;;;;;767266;180;712985;-64
2024/03/28 04:54:21;;;;;;;14.53;5.60;;;;;;;;;;768065;180;909244;-64
2024/03/28 04:56:47;;;;;;;16.30;5.12;;;;;;;;;;769203;179;909786;-68
2024/03/28 04:59:13;;;;;;;10.80;4.62;;;;;;;;;;770611;180;814488;-68
2024/03/28 05:01:39;;;;;;;14.77;4.67;;;;;;;;;;763312;179;912758;-68
2024/03/28 05:04:05;;;;;;;13.85;5.20;;;;;;;;;;771691;179;917522;-68
2024/03/28 05:06:30;;;;;;;15.07;5.87;;;;;;;;;;774729;179;615219;-68
2024/03/28 05:08:56;;;;;;;13.87;4.63;;;;;;;;;;768181;181;643293;-68
2024/03/28 05:11:23;;;;;;;15.60;6.20;;;;;;;;;;765846;179;633455;-68
2024/03/28 05:13:48;;;;;;;13.23;5.87;;;;;;;;;;772532;180;652908;-68
2024/03/28 05:16:15;;;;;;;14.60;5.00;;;;;;;;;;775543;179;642761;-68
2024/03/28 05:18:40;;;;;;;21.23;3.47;;;;;;;;;;774889;179;770310;-68
2024/03/28 05:21:06;;;;;;;7.40;2.62;;;;;;;;;;773468;180;676672;-68
2024/03/28 05:23:31;;;;;;;16.50;2.80;;;;;;;;;;777817;179;643662;-68
2024/03/28 05:25:57;;;;;;;14.60;3.70;;;;;;;;;;768820;180;631065;-68
2024/03/28 05:28:23;;;;;;;7.85;3.40;;;;;;;;;;765637;180;631897;-67
2024/03/28 05:30:49;;;;;;;12.00;3.00;;;;;;;;;;770088;179;643943;-65
2024/03/28 05:33:15;;;;;;;7.10;2.33;;;;;;;;;;774646;179;623844;-65
2024/03/28 05:35:43;;;;;;;6.33;2.20;;;;;;;;;;771196;180;918359;-64
2024/03/28 05:38:06;;;;;;;6.60;2.83;;;;;;;;;;771952;180;817509;-65
2024/03/28 05:40:32;;;;;;;6.28;2.25;;;;;;;;;;769825;179;785174;-65
2024/03/28 05:42:58;;;;;;;4.30;2.10;;;;;;;;;;770867;179;906843;-64
2024/03/28 05:45:24;;;;;;;4.00;2.20;;;;;;;;;;764762;180;916711;-65
2024/03/28 05:47:50;;;;;;;4.20;1.93;;;;;;;;;;766131;180;787168;-65
2024/03/28 05:50:16;;;;;;;3.23;1.70;;;;;;;;;;764323;181;840342;-64
2024/03/28 05:52:41;;;;;;;5.23;2.50;;;;;;;;;;766740;180;866433;-64
2024/03/28 05:55:07;;;;;;;11.10;2.90;;;;;;;;;;776443;180;620214;-65
2024/03/28 05:57:33;;;;;;;7.80;1.97;;;;;;;;;;768587;179;816540;-65
2024/03/28 05:59:59;;;;;;;6.33;1.83;;;;;;;;;;765389;180;815205;-64
2024/03/28 06:02:25;;;;;;;3.40;1.90;;;;;;;;;;766610;179;817695;-64
2024/03/28 06:04:51;;;;;;;4.90;2.10;;;;;;;;;;766159;181;813361;-67
2024/03/28 06:07:17;;;;;;;5.03;2.20;;;;;;;;;;769070;181;696739;-65
2024/03/28 06:09:43;;;;;;;4.33;1.97;;;;;;;;;;770060;181;628455;-64
2024/03/28 06:12:09;;;;;;;3.43;1.43;;;;;;;;;;765119;181;857782;-65
2024/03/28 06:14:36;;;;;;;3.50;1.27;;;;;;;;;;772188;179;737786;-65
2024/03/28 06:17:00;;;;;;;3.47;1.67;;;;;;;;;;767841;180;815080;-67
2024/03/28 06:19:26;;;;;;;3.30;1.60;;;;;;;;;;766786;181;772112;-65
2024/03/28 06:21:52;;;;;;;7.80;2.27;;;;;;;;;;772868;179;810477;-64
2024/03/28 06:24:18;;;;;;;3.30;1.75;;;;;;;;;;774258;179;659906;-65
2024/03/28 06:26:44;;;;;;;5.63;1.80;;;;;;;;;;772524;180;813105;-64
2024/03/28 06:29:10;;;;;;;5.23;1.90;;;;;;;;;;769994;179;813200;-65
2024/03/28 06:31:40;;;;;;;4.33;1.70;;;;;;;;;;768692;180;784778;-65
2024/03/28 06:34:01;;;;;;;3.67;1.97;;;;;;;;;;767250;180;872605;-64
2024/03/28 06:36:27;;;;;;;4.83;2.90;;;;;;;;;;766638;180;920719;-64
2024/03/28 06:38:53;;;;;;;3.93;2.90;;;;;;;;;;772452;180;776741;-64
2024/03/28 06:41:18;;;;;;;3.80;2.63;;;;;;;;;;772872;180;827725;-65
2024/03/28 06:43:48;;;;;;;5.93;3.47;;;;;;;;;;767386;181;922479;-64
2024/03/28 06:46:10;;;;;;;5.72;2.65;;;;;;;;;;767209;179;815276;-65
2024/03/28 06:48:36;;;;;;;6.17;3.13;;;;;;;;;;769288;181;912038;-64
2024/03/28 06:51:02;;;;;;;4.77;2.90;;;;;;;;;;767523;180;852733;-64
2024/03/28 06:53:28;;;;;;;5.00;3.90;;;;;;;;;;763580;181;916368;-64
2024/03/28 06:55:54;;;;;;;8.90;3.23;;;;;;;;;;764947;181;848524;-65
2024/03/28 06:58:19;;;;;;;4.75;2.97;;;;;;;;;;768891;179;928729;-65
2024/03/28 07:00:45;;;;;;;5.20;3.90;;;;;;;;;;761893;179;921731;-64
2024/03/28 07:03:12;;;;;;;4.35;3.37;;;;;;;;;;764391;181;849974;-64
2024/03/28 07:05:37;;;;;;;5.83;3.10;;;;;;;;;;769859;179;625911;-63
2024/03/28 07:08:03;;;;;;;5.07;3.20;;;;;;;;;;771868;179;918094;-64
2024/03/28 07:10:29;;;;;;;4.50;2.83;;;;;;;;;;769266;179;624807;-65
2024/03/28 07:12:55;;;;;;;4.10;2.30;;;;;;;;;;773235;181;808281;-64
2024/03/28 07:15:20;;;;;;;4.60;2.37;;;;;;;;;;765938;180;627123;-64
2024/03/28 07:17:46;;;;;;;4.40;2.87;;;;;;;;;;766285;181;920397;-64
2024/03/28 07:20:12;;;;;;;4.53;3.23;;;;;;;;;;764924;179;930906;-64
2024/03/28 07:22:38;;;;;;;3.50;1.90;;;;;;;;;;768094;181;800129;-66
2024/03/28 07:25:04;;;;;;;3.50;2.50;;;;;;;;;;764803;180;870022;-64
2024/03/28 07:27:30;;;;;;;4.10;2.50;;;;;;;;;;768014;179;916371;-65
2024/03/28 07:29:57;;;;;;;4.20;2.10;;;;;;;;;;760424;183;889566;-67
2024/03/28 07:32:22;;;;;;;3.33;2.27;;;;;;;;;;763677;183;635352;-67
2024/03/28 07:34:48;;;;;;;2.77;1.30;;;;;;;;;;772774;179;807160;-68
2024/03/28 07:37:14;;;;;;;2.80;1.60;;;;;;;;;;773680;179;621019;-67
2024/03/28 07:39:40;;;;;;;3.57;1.53;;;;;;;;;;765735;179;1025411;-65
2024/03/28 07:42:06;;;;;;;3.17;1.60;;;;;;;;;;769842;180;746659;-65
2024/03/28 07:44:32;;;;;;;3.23;2.10;;;;;;;;;;769821;179;869479;-64
2024/03/28 07:46:58;;;;;;;2.87;1.63;;;;;;;;;;770158;179;1015762;-65
2024/03/28 07:49:24;;;;;;;2.85;1.58;;;;;;;;;;762842;180;895216;-65
2024/03/28 07:51:52;;;;;;;3.43;1.60;;;;;;;;;;773082;179;901665;-65
2024/03/28 07:54:18;;;;;;;2.73;1.50;;;;;;;;;;766089;183;917946;-66
2024/03/28 07:56:44;;;;;;;2.70;1.60;;;;;;;;;;772043;179;919476;-64
2024/03/28 07:59:10;;;;;;;2.10;1.13;;;;;;;;;;767664;181;630648;-65
2024/03/28 08:01:36;;;;;;;2.50;1.30;;;;;;;;;;770032;181;1117087;-66
2024/03/28 08:04:02;;;;;;;2.30;1.20;;;;;;;;;;765183;179;843937;-65
2024/03/28 08:06:28;;;;;;;2.33;1.27;;;;;;;;;;769739;179;852192;-65
2024/03/28 08:08:54;;;;;;;2.40;1.30;;;;;;;;;;763122;182;817981;-65
2024/03/28 08:11:20;;;;;;;2.87;1.77;;;;;;;;;;764205;180;922239;-67
2024/03/28 08:13:46;;;;;;;2.50;1.17;;;;;;;;;;763417;178;820308;-66
2024/03/28 08:16:15;;;;;;;2.67;1.30;;;;;;;;;;766593;180;1326445;-65
2024/03/28 08:18:43;;;;;;;2.67;1.10;;;;;;;;;;768457;181;794913;-65
2024/03/28 08:21:09;;;;;;;3.00;1.47;;;;;;;;;;768086;179;667812;-65
2024/03/28 08:23:35;;;;;;;2.60;1.50;;;;;;;;;;752850;179;1438901;-67
2024/03/28 08:26:01;;;;;;;3.30;1.73;;;;;;;;;;756250;185;1208841;-68
2024/03/28 08:28:27;;;;;;;2.50;1.20;;;;;;;;;;735068;187;816758;-68
2024/03/28 08:30:53;;;;;;;2.80;1.50;;;;;;;;;;730612;191;897290;-67
2024/03/28 08:33:19;;;;;;;3.17;1.70;;;;;;;;;;733066;188;711330;-68
2024/03/28 08:35:45;;;;;;;3.20;1.90;;;;;;;;;;732206;187;628348;-68
2024/03/28 08:38:11;;;;;;;2.90;1.80;;;;;;;;;;726487;193;892573;-67
2024/03/28 08:40:36;;;;;;;2.80;1.45;;;;;;;;;;730182;192;817709;-67
2024/03/28 08:43:02;;;;;;;2.97;1.87;;;;;;;;;;713978;193;800020;-67
2024/03/28 08:45:28;;;;;;;3.50;2.10;;;;;;;;;;717002;193;739995;-67
2024/03/28 08:47:56;;;;;;;5.23;1.63;;;;;;;;;;715780;195;816842;-68
2024/03/28 08:50:20;;;;;;;2.30;1.40;;;;;;;;;;741472;187;869667;-68
2024/03/28 08:52:46;;;;;;;2.60;1.67;;;;;;;;;;733327;189;918701;-68
2024/03/28 08:55:11;;;;;;;3.67;2.03;;;;;;;;;;737080;189;915575;-68
2024/03/28 08:57:38;;;;;;;3.50;2.00;;;;;;;;;;741823;189;818999;-66
2024/03/28 09:00:10;;;;;;;2.72;1.87;;;;;;;;;;739383;186;917977;-68
2024/03/28 09:02:30;;;;;;;2.95;2.28;;;;;;;;;;737225;186;688673;-69
2024/03/28 09:04:56;;;;;;;2.70;1.50;;;;;;;;;;741567;186;916783;-67
2024/03/28 09:07:22;;;;;;;4.23;2.90;;;;;;;;;;733868;187;716849;-67
2024/03/28 09:09:48;;;;;;;2.80;1.90;;;;;;;;;;721926;192;915380;-68
2024/03/28 09:12:14;;;;;;;3.60;2.20;;;;;;;;;;733451;189;815690;-68
2024/03/28 09:14:40;;;;;;;2.45;1.55;;;;;;;;;;726384;187;1122411;-67
2024/03/28 09:17:07;;;;;;;2.63;1.60;;;;;;;;;;731044;188;814937;-68
2024/03/28 09:19:31;;;;;;;2.50;1.57;;;;;;;;;;736549;186;885666;-68
2024/03/28 09:21:57;;;;;;;3.10;2.00;;;;;;;;;;740737;186;912532;-67
2024/03/28 09:24:23;;;;;;;2.70;1.50;;;;;;;;;;734254;186;916470;-67
2024/03/28 09:26:49;;;;;;;3.30;1.40;;;;;;;;;;737730;186;804635;-67
2024/03/28 09:29:20;;;;;;;4.73;1.73;;;;;;;;;;743733;187;633459;-68
2024/03/28 09:31:40;;;;;;;3.10;1.48;;;;;;;;;;729803;191;933722;-68
2024/03/28 09:34:06;;;;;;;3.03;1.50;;;;;;;;;;730376;187;916358;-67
2024/03/28 09:36:32;;;;;;;2.43;1.37;;;;;;;;;;729237;192;1027915;-67
2024/03/28 09:38:58;;;;;;;2.80;1.63;;;;;;;;;;731503;187;861210;-66
2024/03/28 09:41:26;;;;;;;2.83;1.67;;;;;;;;;;729254;192;639843;-65
2024/03/28 09:44:00;;;;;;;2.33;1.30;;;;;;;;;;730086;189;614272;-66
2024/03/28 09:46:25;;;;;;;3.10;1.80;;;;;;;;;;740268;187;613208;-64
2024/03/28 09:48:51;;;;;;;2.50;1.30;;;;;;;;;;741109;186;642835;-65
2024/03/28 09:51:17;;;;;;;5.07;2.10;;;;;;;;;;732538;190;626088;-65
2024/03/28 09:53:43;;;;;;;2.30;1.00;;;;;;;;;;735400;187;687424;-67
2024/03/28 09:56:09;;;;;;;2.20;1.30;;;;;;;;;;736085;186;916704;-67
2024/03/28 09:58:38;;;;;;;2.57;1.30;;;;;;;;;;741255;187;762781;-65
2024/03/28 10:01:01;;;;;;;2.33;1.20;;;;;;;;;;736893;190;616560;-64
2024/03/28 10:03:29;;;;;;;2.50;1.37;;;;;;;;;;733146;188;716209;-65
2024/03/28 10:05:55;;;;;;;2.50;1.30;;;;;;;;;;736987;186;618704;-65
2024/03/28 10:08:21;;;;;;;2.20;1.30;;;;;;;;;;733162;190;654445;-66
2024/03/28 10:10:47;;;;;;;2.87;1.53;;;;;;;;;;737332;190;629626;-66
2024/03/28 10:13:14;;;;;;;2.60;1.30;;;;;;;;;;734581;187;632751;-66
2024/03/28 10:15:39;;;;;;;2.63;1.53;;;;;;;;;;731634;187;947893;-66
2024/03/28 10:18:06;;;;;;;2.20;1.00;;;;;;;;;;736909;187;621481;-66
2024/03/28 10:20:32;;;;;;;2.40;1.20;;;;;;;;;;734070;187;770744;-66
2024/03/28 10:22:57;;;;;;;3.10;1.80;;;;;;;;;;730691;190;854527;-67
2024/03/28 10:25:23;;;;;;;5.50;1.60;;;;;;;;;;740172;186;855314;-68
2024/03/28 10:27:49;;;;;;;2.50;1.30;;;;;;;;;;738084;186;818195;-67
2024/03/28 10:30:18;;;;;;;3.60;2.00;;;;;;;;;;737197;186;815625;-67
2024/03/28 10:32:44;;;;;;;2.33;1.23;;;;;;;;;;726575;187;948114;-67
2024/03/28 10:35:11;;;;;;;2.60;1.63;;;;;;;;;;732194;189;818737;-67
2024/03/28 10:37:36;;;;;;;2.40;1.30;;;;;;;;;;726890;190;809510;-67
2024/03/28 10:40:02;;;;;;;2.10;1.30;;;;;;;;;;730584;190;717167;-67
2024/03/28 10:42:28;;;;;;;3.23;1.57;;;;;;;;;;736060;187;906928;-68
2024/03/28 10:44:59;;;;;;;2.57;1.27;;;;;;;;;;719217;193;828640;-68
2024/03/28 10:47:19;;;;;;;3.63;1.73;;;;;;;;;;731416;187;809447;-67
2024/03/28 10:49:46;;;;;;;3.10;1.53;;;;;;;;;;734384;188;790859;-67
2024/03/28 10:52:12;;;;;;;2.43;1.23;;;;;;;;;;739430;187;780597;-67
2024/03/28 10:54:40;;;;;;;3.72;1.20;;;;;;;;;;732622;187;892827;-67
2024/03/28 10:57:06;;;;;;;2.10;1.10;;;;;;;;;;734727;187;696161;-69
2024/03/28 10:59:31;;;;;;;2.20;1.10;;;;;;;;;;741845;186;831789;-67
2024/03/28 11:01:57;;;;;;;2.20;1.03;;;;;;;;;;735906;186;921597;-67
2024/03/28 11:04:23;;;;;;;2.57;1.30;;;;;;;;;;736937;186;714920;-68
2024/03/28 11:06:49;;;;;;;2.20;1.03;;;;;;;;;;735402;187;809489;-67
2024/03/28 11:09:15;;;;;;;2.20;1.00;;;;;;;;;;734080;188;918581;-67
2024/03/28 11:11:41;;;;;;;2.20;1.17;;;;;;;;;;721390;190;891771;-67
2024/03/28 11:14:07;;;;;;;2.53;1.40;;;;;;;;;;739060;186;833478;-67
2024/03/28 11:16:32;;;;;;;3.27;1.30;;;;;;;;;;738994;186;816321;-66
2024/03/28 11:18:59;;;;;;;3.10;1.00;;;;;;;;;;739945;186;699164;-67
2024/03/28 11:21:27;;;;;;;2.30;1.10;;;;;;;;;;742649;186;916958;-68
2024/03/28 11:23:53;;;;;;;2.10;0.90;;;;;;;;;;740618;187;691752;-67
2024/03/28 11:26:21;;;;;;;2.87;0.80;;;;;;;;;;738503;185;817178;-66
2024/03/28 11:28:47;;;;;;;2.27;0.97;;;;;;;;;;740496;186;633788;-68
2024/03/28 11:31:14;;;;;;;2.30;1.03;;;;;;;;;;736969;187;922665;-67
2024/03/28 11:33:40;;;;;;;3.00;1.20;;;;;;;;;;733510;190;647325;-67
2024/03/28 11:36:06;;;;;;;2.57;1.10;;;;;;;;;;730521;187;909619;-68
2024/03/28 11:38:33;;;;;;;2.67;1.00;;;;;;;;;;735859;187;796441;-67
2024/03/28 11:40:58;;;;;;;3.03;1.20;;;;;;;;;;729652;187;918151;-67
2024/03/28 11:43:24;;;;;;;2.87;1.00;;;;;;;;;;727888;188;927447;-67
2024/03/28 11:45:52;;;;;;;2.10;1.00;;;;;;;;;;733891;190;893375;-67
2024/03/28 11:48:17;;;;;;;2.00;0.80;;;;;;;;;;735431;187;630183;-67
2024/03/28 11:50:43;;;;;;;2.37;1.10;;;;;;;;;;730336;187;775086;-67
2024/03/28 11:53:12;;;;;;;4.17;1.30;;;;;;;;;;729014;187;813041;-67
2024/03/28 11:55:38;;;;;;;1.90;0.80;;;;;;;;;;732661;188;814783;-67
2024/03/28 11:58:04;;;;;;;2.00;0.80;;;;;;;;;;731493;187;810583;-68
2024/03/28 12:00:30;;;;;;;2.30;0.85;;;;;;;;;;728637;187;912908;-69
2024/03/28 12:02:56;;;;;;;2.60;0.93;;;;;;;;;;732153;189;797311;-68
2024/03/28 12:05:22;;;;;;;1.90;0.70;;;;;;;;;;710394;196;918196;-67
2024/03/28 12:07:48;;;;;;;3.43;1.00;;;;;;;;;;711369;193;888459;-67
2024/03/28 12:10:19;;;;;;;2.00;0.90;;;;;;;;;;731104;189;817411;-67
2024/03/28 12:12:44;;;;;;;3.60;1.37;;;;;;;;;;729789;193;903270;-65
2024/03/28 12:15:10;;;;;;;1.90;0.80;;;;;;;;;;708562;193;887489;-65
2024/03/28 12:17:36;;;;;;;1.87;0.70;;;;;;;;;;728842;190;912542;-65
2024/03/28 12:20:05;;;;;;;2.00;0.90;;;;;;;;;;741920;186;947993;-65
2024/03/28 12:22:31;;;;;;;2.40;0.80;;;;;;;;;;732834;187;926227;-65
2024/03/28 12:24:57;;;;;;;1.90;0.80;;;;;;;;;;730409;189;906732;-65
2024/03/28 12:27:22;;;;;;;3.90;0.80;;;;;;;;;;731985;192;825121;-67
2024/03/28 12:29:48;;;;;;;2.70;0.80;;;;;;;;;;734053;186;871491;-68
2024/03/28 12:32:14;;;;;;;3.60;0.90;;;;;;;;;;729692;190;941492;-68
2024/03/28 12:34:40;;;;;;;1.87;0.77;;;;;;;;;;730296;187;723091;-69
2024/03/28 12:37:06;;;;;;;2.10;1.00;;;;;;;;;;731040;189;918532;-65
2024/03/28 12:39:32;;;;;;;1.97;0.77;;;;;;;;;;726084;191;1156372;-67
2024/03/28 12:42:01;;;;;;;2.10;0.80;;;;;;;;;;734656;191;615206;-67
2024/03/28 12:44:27;;;;;;;3.73;1.53;;;;;;;;;;719688;196;703928;-66
2024/03/28 12:46:53;;;;;;;5.60;0.90;;;;;;;;;;722167;191;916030;-67
2024/03/28 12:49:19;;;;;;;1.97;0.70;;;;;;;;;;739878;189;702856;-66
2024/03/28 12:51:44;;;;;;;2.00;0.90;;;;;;;;;;744387;189;624168;-65
2024/03/28 12:54:11;;;;;;;2.00;0.70;;;;;;;;;;733202;187;640533;-67
2024/03/28 12:56:36;;;;;;;2.33;0.80;;;;;;;;;;733278;188;631021;-66
2024/03/28 12:59:02;;;;;;;2.10;0.80;;;;;;;;;;735133;189;630271;-66
2024/03/28 13:01:28;;;;;;;2.00;0.80;;;;;;;;;;732562;187;918349;-65
2024/03/28 13:03:54;;;;;;;3.03;0.70;;;;;;;;;;719651;194;916278;-66
2024/03/28 13:06:19;;;;;;;2.00;0.90;;;;;;;;;;737503;186;915186;-67
2024/03/28 13:08:45;;;;;;;2.40;0.77;;;;;;;;;;742733;186;633397;-65
2024/03/28 13:11:11;;;;;;;3.33;0.80;;;;;;;;;;737372;187;823877;-65
2024/03/28 13:13:37;;;;;;;2.50;0.80;;;;;;;;;;739142;186;724521;-65
2024/03/28 13:16:04;;;;;;;1.83;0.70;;;;;;;;;;741624;186;888295;-65
2024/03/28 13:18:29;;;;;;;2.20;0.80;;;;;;;;;;720881;189;913539;-65
2024/03/28 13:20:57;;;;;;;2.28;0.80;;;;;;;;;;725870;187;832944;-66
2024/03/28 13:23:21;;;;;;;2.93;1.53;;;;;;;;;;732975;191;847662;-68
2024/03/28 13:25:47;;;;;;;2.00;0.80;;;;;;;;;;728389;186;810756;-66
2024/03/28 13:28:12;;;;;;;2.30;0.90;;;;;;;;;;727611;186;912899;-65
2024/03/28 13:30:38;;;;;;;2.00;0.70;;;;;;;;;;729373;186;918093;-65
2024/03/28 13:33:04;;;;;;;3.07;0.80;;;;;;;;;;727192;186;908875;-66
2024/03/28 13:35:31;;;;;;;1.80;0.70;;;;;;;;;;728218;189;915068;-66
2024/03/28 13:37:56;;;;;;;1.90;0.70;;;;;;;;;;725078;186;919998;-68
2024/03/28 13:40:22;;;;;;;1.90;0.70;;;;;;;;;;730115;188;919534;-66
2024/03/28 13:42:48;;;;;;;3.83;1.07;;;;;;;;;;728079;187;938989;-66
2024/03/28 13:45:14;;;;;;;2.05;0.75;;;;;;;;;;731067;186;707368;-66
2024/03/28 13:47:39;;;;;;;1.83;0.70;;;;;;;;;;732027;186;891151;-65
2024/03/28 13:50:06;;;;;;;2.10;0.70;;;;;;;;;;725302;186;937015;-65
2024/03/28 14:00:11;;;;;;;2.50;1.00;;;;;;;;;;755636;181;922296;-66
2024/03/28 14:02:37;;;;;;;2.10;0.90;;;;;;;;;;774836;177;915106;-66
2024/03/28 14:05:03;;;;;;;2.47;1.00;;;;;;;;;;770938;177;813607;-66
2024/03/28 14:07:29;;;;;;;2.30;0.90;;;;;;;;;;781149;175;887158;-65
2024/03/28 14:09:54;;;;;;;2.50;1.00;;;;;;;;;;772601;179;912813;-66
2024/03/28 14:12:20;;;;;;;2.13;0.87;;;;;;;;;;773116;177;921378;-66
2024/03/28 14:14:46;;;;;;;2.47;0.80;;;;;;;;;;780968;177;814888;-66
2024/03/28 14:17:12;;;;;;;2.80;1.00;;;;;;;;;;773308;177;920096;-67
2024/03/28 14:19:38;;;;;;;1.92;0.80;;;;;;;;;;770832;177;917554;-65
2024/03/28 14:22:04;;;;;;;3.03;0.90;;;;;;;;;;783126;177;884062;-66
2024/03/28 14:24:30;;;;;;;2.67;1.17;;;;;;;;;;775826;178;713584;-66
2024/03/28 14:26:55;;;;;;;3.70;1.00;;;;;;;;;;775749;177;803564;-66
2024/03/28 14:29:21;;;;;;;2.07;0.93;;;;;;;;;;781139;176;820368;-66
2024/03/28 14:31:47;;;;;;;3.37;0.90;;;;;;;;;;767532;180;915769;-67